Time;durP1;ratioP1;P1;durP2;ratioP2;P2;SDS_P1;SDS_P2;PMS_P1;PMS_P2;Temp;Humidity;BMP_temperature;BMP_pressure;BME280_temperature;BME280_humidity;BME280_pressure;Samples;Min_cycle;Max_cycle;Signal;HPM_P1;HPM_P2
2023/04/14 00:00:12;;;;;;;;;;;5.20;99.90;;;;;;5105130;28;19931;-75
2023/04/14 00:02:37;;;;;;;;;;;5.20;99.90;;;;;;5107689;28;19973;-75
2023/04/14 00:05:03;;;;;;;;;;;5.30;99.90;;;;;;5105359;28;19932;-75
2023/04/14 00:07:29;;;;;;;;;;;5.30;99.90;;;;;;5095131;28;19928;-76
2023/04/14 00:09:54;;;;;;;;;;;5.40;99.90;;;;;;5104259;28;20656;-75
2023/04/14 00:12:20;;;;;;;;;;;5.40;99.90;;;;;;5104967;28;19931;-75
2023/04/14 00:14:46;;;;;;;;;;;5.40;99.90;;;;;;5101471;28;19923;-75
2023/04/14 00:17:11;;;;;;;;;;;5.40;99.90;;;;;;5104570;28;19923;-76
2023/04/14 00:19:37;;;;;;;;;;;5.40;99.90;;;;;;5091219;28;19931;-75
2023/04/14 00:22:02;;;;;;;;;;;5.40;99.90;;;;;;5104731;28;20405;-75
2023/04/14 00:24:28;;;;;;;;;;;5.40;99.90;;;;;;5087156;28;20302;-75
2023/04/14 00:26:53;;;;;;;;;;;5.40;99.90;;;;;;5104346;28;20323;-75
2023/04/14 00:29:19;;;;;;;;;;;5.40;99.90;;;;;;5100962;28;19953;-75
2023/04/14 00:31:45;;;;;;;;;;;5.30;99.90;;;;;;5082704;28;19924;-75
2023/04/14 00:34:10;;;;;;;;;;;5.30;99.90;;;;;;5105269;28;19967;-75
2023/04/14 00:36:36;;;;;;;;;;;5.20;99.90;;;;;;5107954;28;19977;-75
2023/04/14 00:39:03;;;;;;;;;;;5.20;99.90;;;;;;5102543;28;19928;-75
2023/04/14 00:41:32;;;;;;;;;;;5.20;99.90;;;;;;5101024;28;19924;-75
2023/04/14 00:43:58;;;;;;;;;;;5.20;99.90;;;;;;5089704;28;19928;-76
2023/04/14 00:46:23;;;;;;;;;;;5.10;99.90;;;;;;5092819;28;20298;-75
2023/04/14 00:48:49;;;;;;;;;;;5.10;99.90;;;;;;5085426;28;20270;-75
2023/04/14 00:51:15;;;;;;;;;;;5.00;99.90;;;;;;5083850;28;19923;-75
2023/04/14 00:53:41;;;;;;;;;;;5.00;99.90;;;;;;5089249;28;19924;-75
2023/04/14 00:56:07;;;;;;;;;;;4.90;99.90;;;;;;5091310;28;19934;-76
2023/04/14 00:58:32;;;;;;;;;;;4.80;99.90;;;;;;5093838;28;19928;-75
2023/04/14 01:00:58;;;;;;;;;;;4.80;99.90;;;;;;5093280;28;19924;-75
2023/04/14 01:03:25;;;;;;;;;;;4.80;99.90;;;;;;5093137;28;19928;-75
2023/04/14 01:05:50;;;;;;;;;;;4.70;99.90;;;;;;5096133;28;20028;-75
2023/04/14 01:08:16;;;;;;;;;;;4.70;99.90;;;;;;5092696;28;19999;-75
2023/04/14 01:10:47;;;;;;;;;;;4.70;99.90;;;;;;5093239;28;20459;-75
2023/04/14 01:13:16;;;;;;;;;;;4.60;99.90;;;;;;5092196;28;20630;-75
2023/04/14 01:15:53;;;;;;;;;;;4.60;99.90;;;;;;5092738;28;20356;-75
2023/04/14 01:18:28;;;;;;;;;;;4.60;99.90;;;;;;5091894;28;20408;-76
2023/04/14 01:20:57;;;;;;;;;;;4.60;99.90;;;;;;5091866;28;19928;-75
2023/04/14 01:23:30;;;;;;;;;;;4.50;99.90;;;;;;5091601;28;19928;-75
2023/04/14 01:26:14;;;;;;;;;;;4.50;99.90;;;;;;5093482;28;19935;-75
2023/04/14 01:28:42;;;;;;;;;;;4.60;99.90;;;;;;5084036;28;19927;-76
2023/04/14 01:31:11;;;;;;;;;;;4.60;99.90;;;;;;5093778;28;19924;-76
2023/04/14 01:33:38;;;;;;;;;;;4.60;99.90;;;;;;5075190;28;20344;-75
2023/04/14 01:36:05;;;;;;;;;;;4.70;99.90;;;;;;5090773;28;19931;-75
2023/04/14 01:38:32;;;;;;;;;;;4.60;99.90;;;;;;5091829;28;19970;-75
2023/04/14 01:41:05;;;;;;;;;;;4.60;99.90;;;;;;5090888;28;19924;-76
2023/04/14 01:43:32;;;;;;;;;;;4.60;99.90;;;;;;5091877;28;19924;-75
2023/04/14 01:46:02;;;;;;;;;;;4.60;99.90;;;;;;5091593;28;19931;-75
2023/04/14 01:48:28;;;;;;;;;;;4.50;99.90;;;;;;5091541;28;20015;-76
2023/04/14 01:50:55;;;;;;;;;;;4.50;99.90;;;;;;5103169;28;19924;-75
2023/04/14 01:53:21;;;;;;;;;;;4.60;99.90;;;;;;5102690;28;19927;-76
2023/04/14 01:55:47;;;;;;;;;;;4.60;99.90;;;;;;5091180;28;19974;-75
2023/04/14 01:58:14;;;;;;;;;;;4.60;99.90;;;;;;5091826;28;19936;-75
2023/04/14 02:00:41;;;;;;;;;;;4.60;99.90;;;;;;5088185;28;19928;-75
2023/04/14 02:03:07;;;;;;;;;;;4.60;99.90;;;;;;5084493;28;20298;-76
2023/04/14 02:05:34;;;;;;;;;;;4.60;99.90;;;;;;5090953;28;19935;-76
2023/04/14 02:08:02;;;;;;;;;;;4.60;99.90;;;;;;5090547;28;19924;-75
2023/04/14 02:10:28;;;;;;;;;;;4.60;99.90;;;;;;5092276;28;19931;-75
2023/04/14 02:12:56;;;;;;;;;;;4.60;99.90;;;;;;5091145;28;20512;-75
2023/04/14 02:15:21;;;;;;;;;;;4.60;99.90;;;;;;5091198;28;19935;-76
2023/04/14 02:17:48;;;;;;;;;;;4.60;99.90;;;;;;5091584;28;19924;-75
2023/04/14 02:20:14;;;;;;;;;;;4.70;99.90;;;;;;5090977;28;19935;-75
2023/04/14 02:22:39;;;;;;;;;;;4.60;99.90;;;;;;5091098;28;20437;-75
2023/04/14 02:25:05;;;;;;;;;;;4.60;99.90;;;;;;5090720;28;20381;-75
2023/04/14 02:27:39;;;;;;;;;;;4.60;99.90;;;;;;5090427;28;20004;-75
2023/04/14 02:30:18;;;;;;;;;;;4.50;99.90;;;;;;5078550;28;19928;-75
2023/04/14 02:32:48;;;;;;;;;;;4.50;99.90;;;;;;5090967;28;20377;-75
2023/04/14 02:35:15;;;;;;;;;;;4.50;99.90;;;;;;5091358;28;19963;-75
2023/04/14 02:37:43;;;;;;;;;;;4.40;99.90;;;;;;5090537;28;19924;-75
2023/04/14 02:40:14;;;;;;;;;;;4.50;99.90;;;;;;5091517;28;19930;-75
2023/04/14 02:42:42;;;;;;;;;;;4.50;99.90;;;;;;5091028;28;20476;-75
2023/04/14 02:45:11;;;;;;;;;;;4.50;99.90;;;;;;5091392;28;19974;-75
2023/04/14 02:47:38;;;;;;;;;;;4.50;99.90;;;;;;5106277;28;19970;-75
2023/04/14 02:50:06;;;;;;;;;;;4.50;99.90;;;;;;5108526;28;20018;-75
2023/04/14 02:52:32;;;;;;;;;;;4.50;99.90;;;;;;5103084;28;19946;-75
2023/04/14 02:54:57;;;;;;;;;;;4.50;99.90;;;;;;5101726;28;20301;-75
2023/04/14 02:57:24;;;;;;;;;;;4.60;99.90;;;;;;5091250;28;20182;-75
2023/04/14 02:59:51;;;;;;;;;;;4.60;99.90;;;;;;5089696;28;19931;-75
2023/04/14 03:02:16;;;;;;;;;;;4.60;99.90;;;;;;5089874;28;20386;-75
2023/04/14 03:04:42;;;;;;;;;;;4.60;99.90;;;;;;5090406;28;19924;-75
2023/04/14 03:07:10;;;;;;;;;;;4.60;99.90;;;;;;5090939;28;20351;-75
2023/04/14 03:09:36;;;;;;;;;;;4.70;99.90;;;;;;5090152;28;20389;-75
2023/04/14 03:12:02;;;;;;;;;;;4.70;99.90;;;;;;5090856;28;20030;-75
2023/04/14 03:14:28;;;;;;;;;;;4.80;99.90;;;;;;5091222;28;19924;-75
2023/04/14 03:16:54;;;;;;;;;;;4.90;99.90;;;;;;5090592;28;19927;-75
2023/04/14 03:19:23;;;;;;;;;;;4.90;99.90;;;;;;5089092;28;20302;-75
2023/04/14 03:21:49;;;;;;;;;;;5.00;99.90;;;;;;5090638;28;19977;-75
2023/04/14 03:24:23;;;;;;;;;;;5.10;99.90;;;;;;5088596;28;19924;-75
2023/04/14 03:27:07;;;;;;;;;;;5.00;99.90;;;;;;5077370;28;19969;-75
2023/04/14 03:29:38;;;;;;;;;;;5.10;99.90;;;;;;5104395;28;20385;-75
2023/04/14 03:32:05;;;;;;;;;;;5.10;99.90;;;;;;5098534;28;19957;-75
2023/04/14 03:34:32;;;;;;;;;;;5.10;99.90;;;;;;5101058;28;19931;-75
2023/04/14 03:36:58;;;;;;;;;;;5.20;99.90;;;;;;5099021;28;19976;-75
2023/04/14 03:39:27;;;;;;;;;;;5.20;99.90;;;;;;5105965;28;20592;-75
2023/04/14 03:41:54;;;;;;;;;;;5.20;99.90;;;;;;5108033;28;19928;-76
2023/04/14 03:44:21;;;;;;;;;;;5.20;99.90;;;;;;5103222;28;19934;-75
2023/04/14 03:46:48;;;;;;;;;;;5.20;99.90;;;;;;5097919;28;19943;-75
2023/04/14 03:49:15;;;;;;;;;;;5.30;99.90;;;;;;5103792;28;19928;-76
2023/04/14 03:51:42;;;;;;;;;;;5.30;99.90;;;;;;5106853;28;19927;-76
2023/04/14 03:54:08;;;;;;;;;;;5.30;99.90;;;;;;5100065;28;19968;-75
2023/04/14 03:56:40;;;;;;;;;;;5.30;99.90;;;;;;5090295;28;19973;-75
2023/04/14 03:59:10;;;;;;;;;;;5.30;99.90;;;;;;5089217;28;19939;-75
2023/04/14 04:01:36;;;;;;;;;;;5.30;99.90;;;;;;5088886;28;19935;-75
2023/04/14 04:04:04;;;;;;;;;;;5.30;99.90;;;;;;5089045;28;20413;-75
2023/04/14 04:06:30;;;;;;;;;;;5.30;99.90;;;;;;5090080;28;19931;-76
2023/04/14 04:08:56;;;;;;;;;;;5.30;99.90;;;;;;5088634;28;20271;-75
2023/04/14 04:11:22;;;;;;;;;;;5.30;99.90;;;;;;5088478;28;19924;-75
2023/04/14 04:13:48;;;;;;;;;;;5.30;99.90;;;;;;5089986;28;19924;-76
2023/04/14 04:16:14;;;;;;;;;;;5.30;99.90;;;;;;5089417;28;20496;-76
2023/04/14 04:18:45;;;;;;;;;;;5.20;99.90;;;;;;5076582;28;19977;-75
2023/04/14 04:21:13;;;;;;;;;;;5.20;99.90;;;;;;5090355;28;19950;-75
2023/04/14 04:23:40;;;;;;;;;;;5.20;99.90;;;;;;5091488;28;19924;-76
2023/04/14 04:26:06;;;;;;;;;;;5.20;99.90;;;;;;5108675;28;19923;-75
2023/04/14 04:28:31;;;;;;;;;;;5.20;99.90;;;;;;5100414;28;20050;-75
2023/04/14 04:30:59;;;;;;;;;;;5.10;99.90;;;;;;5104868;28;19950;-76
2023/04/14 04:33:26;;;;;;;;;;;5.10;99.90;;;;;;5113099;28;19928;-75
2023/04/14 04:35:53;;;;;;;;;;;5.00;99.90;;;;;;5097462;28;19924;-75
2023/04/14 04:38:18;;;;;;;;;;;5.00;99.90;;;;;;5095216;28;19924;-76
2023/04/14 04:40:44;;;;;;;;;;;4.90;99.90;;;;;;5093818;28;20451;-76
2023/04/14 04:43:09;;;;;;;;;;;4.90;99.90;;;;;;5105008;28;19928;-75
2023/04/14 04:45:35;;;;;;;;;;;4.90;99.90;;;;;;5104977;28;19959;-75
2023/04/14 04:48:00;;;;;;;;;;;4.90;99.90;;;;;;5109642;28;20018;-76
2023/04/14 04:50:26;;;;;;;;;;;4.80;99.90;;;;;;5109643;28;19924;-76
2023/04/14 04:52:51;;;;;;;;;;;4.80;99.90;;;;;;5111553;28;19931;-76
2023/04/14 04:55:17;;;;;;;;;;;4.70;99.90;;;;;;5108543;28;19924;-76
2023/04/14 04:57:42;;;;;;;;;;;4.70;99.90;;;;;;5075572;28;19960;-76
2023/04/14 05:00:08;;;;;;;;;;;4.70;99.90;;;;;;5093346;28;19982;-76
2023/04/14 05:02:34;;;;;;;;;;;4.70;99.90;;;;;;5093939;28;20007;-76
2023/04/14 05:05:00;;;;;;;;;;;4.70;99.90;;;;;;5092758;28;19960;-76
2023/04/14 05:07:25;;;;;;;;;;;4.70;99.90;;;;;;5092335;28;20267;-76
2023/04/14 05:09:51;;;;;;;;;;;4.70;99.90;;;;;;5092073;28;19931;-76
2023/04/14 05:12:16;;;;;;;;;;;4.70;99.90;;;;;;5093125;28;19924;-76
2023/04/14 05:14:42;;;;;;;;;;;4.70;99.90;;;;;;5093294;28;19935;-76
2023/04/14 05:17:07;;;;;;;;;;;4.70;99.90;;;;;;5091709;28;20590;-76
2023/04/14 05:19:33;;;;;;;;;;;4.80;99.90;;;;;;5091542;28;20041;-76
2023/04/14 05:21:58;;;;;;;;;;;4.80;99.90;;;;;;5091525;28;19962;-76
2023/04/14 05:24:24;;;;;;;;;;;4.80;99.90;;;;;;5092973;28;19975;-76
2023/04/14 05:26:50;;;;;;;;;;;4.90;99.90;;;;;;5091805;28;19928;-76
2023/04/14 05:29:15;;;;;;;;;;;4.90;99.90;;;;;;5090990;28;19930;-76
2023/04/14 05:31:40;;;;;;;;;;;4.90;99.90;;;;;;5104628;28;19928;-76
2023/04/14 05:34:06;;;;;;;;;;;5.00;99.90;;;;;;5091451;28;19928;-76
2023/04/14 05:36:31;;;;;;;;;;;5.00;99.90;;;;;;5097798;28;20676;-76
2023/04/14 05:38:57;;;;;;;;;;;5.10;99.90;;;;;;5099098;28;19924;-72
2023/04/14 05:41:23;;;;;;;;;;;5.10;99.90;;;;;;5109918;28;19930;-74
2023/04/14 05:43:48;;;;;;;;;;;5.20;99.90;;;;;;5112519;28;19923;-75
2023/04/14 05:46:14;;;;;;;;;;;5.30;99.90;;;;;;5096730;28;20387;-75
2023/04/14 05:48:40;;;;;;;;;;;5.30;99.90;;;;;;5090547;28;20305;-75
2023/04/14 05:51:05;;;;;;;;;;;5.50;99.90;;;;;;5108391;28;19924;-75
2023/04/14 05:53:31;;;;;;;;;;;5.60;99.90;;;;;;5101165;28;20416;-76
2023/04/14 05:55:56;;;;;;;;;;;5.70;99.90;;;;;;5102356;28;19924;-76
2023/04/14 05:58:23;;;;;;;;;;;5.80;99.90;;;;;;5091738;28;20410;-76
2023/04/14 06:00:49;;;;;;;;;;;5.90;99.90;;;;;;5092044;28;19946;-76
2023/04/14 06:03:15;;;;;;;;;;;6.10;99.90;;;;;;5092201;28;19924;-76
2023/04/14 06:05:41;;;;;;;;;;;6.20;99.90;;;;;;5091446;28;20394;-76
2023/04/14 06:08:06;;;;;;;;;;;6.20;99.90;;;;;;5090551;28;19982;-76
2023/04/14 06:10:32;;;;;;;;;;;6.30;99.90;;;;;;5074105;28;19924;-76
2023/04/14 06:12:57;;;;;;;;;;;6.40;99.90;;;;;;5092432;28;20332;-76
2023/04/14 06:15:25;;;;;;;;;;;6.40;99.90;;;;;;5090307;28;19928;-76
2023/04/14 06:17:51;;;;;;;;;;;6.40;99.90;;;;;;5091974;28;19931;-77
2023/04/14 06:20:17;;;;;;;;;;;6.40;99.90;;;;;;5092143;28;19924;-76
2023/04/14 06:22:43;;;;;;;;;;;6.40;99.90;;;;;;5092216;28;19928;-76
2023/04/14 06:25:09;;;;;;;;;;;6.50;99.90;;;;;;5089784;28;19954;-76
2023/04/14 06:27:35;;;;;;;;;;;6.50;99.90;;;;;;5085812;28;20030;-77
2023/04/14 06:30:01;;;;;;;;;;;6.50;99.90;;;;;;5095929;28;20018;-77
2023/04/14 06:32:26;;;;;;;;;;;6.60;99.90;;;;;;5110458;28;20365;-77
2023/04/14 06:34:52;;;;;;;;;;;6.60;99.90;;;;;;5108099;28;20408;-77
2023/04/14 06:37:17;;;;;;;;;;;6.70;99.90;;;;;;5108747;28;19974;-76
2023/04/14 06:39:43;;;;;;;;;;;6.80;99.90;;;;;;5106770;28;20386;-76
2023/04/14 06:42:11;;;;;;;;;;;6.90;99.90;;;;;;5109830;28;19924;-76
2023/04/14 06:44:40;;;;;;;;;;;6.90;99.90;;;;;;5094997;28;19924;-77
2023/04/14 06:47:06;;;;;;;;;;;7.00;99.90;;;;;;5096130;28;19924;-76
2023/04/14 06:49:32;;;;;;;;;;;7.00;99.90;;;;;;5108575;28;19931;-76
2023/04/14 06:51:57;;;;;;;;;;;7.10;99.90;;;;;;5107482;28;19924;-76
2023/04/14 06:54:23;;;;;;;;;;;7.20;99.90;;;;;;5089051;28;19923;-76
2023/04/14 06:56:48;;;;;;;;;;;7.20;99.90;;;;;;5095988;28;20282;-77
2023/04/14 06:59:14;;;;;;;;;;;7.30;99.90;;;;;;5091276;28;19972;-76
2023/04/14 07:01:40;;;;;;;;;;;7.30;99.90;;;;;;5091066;28;19947;-76
2023/04/14 07:04:06;;;;;;;;;;;7.40;99.90;;;;;;5090857;28;20282;-76
2023/04/14 07:06:31;;;;;;;;;;;7.50;99.90;;;;;;5072265;28;19924;-76
2023/04/14 07:08:57;;;;;;;;;;;7.60;99.90;;;;;;5110793;28;20313;-76
2023/04/14 07:11:22;;;;;;;;;;;7.70;99.90;;;;;;5078864;28;20718;-76
2023/04/14 07:13:48;;;;;;;;;;;7.70;99.90;;;;;;5085050;28;20020;-76
2023/04/14 07:16:13;;;;;;;;;;;7.90;99.90;;;;;;5090358;28;19950;-76
2023/04/14 07:18:39;;;;;;;;;;;7.90;99.90;;;;;;5091740;28;19930;-77
2023/04/14 07:21:04;;;;;;;;;;;8.00;99.90;;;;;;5109713;28;20183;-76
2023/04/14 07:23:32;;;;;;;;;;;8.10;99.90;;;;;;5096530;28;19924;-76
2023/04/14 07:25:58;;;;;;;;;;;8.20;99.90;;;;;;5095987;28;19971;-77
2023/04/14 07:28:24;;;;;;;;;;;8.30;99.90;;;;;;5089059;28;19959;-77
2023/04/14 07:30:50;;;;;;;;;;;8.40;99.90;;;;;;5089177;28;20294;-77
2023/04/14 07:33:19;;;;;;;;;;;8.50;99.90;;;;;;5072268;28;19928;-76
2023/04/14 07:35:45;;;;;;;;;;;8.50;99.90;;;;;;5103465;28;19931;-76
2023/04/14 07:38:10;;;;;;;;;;;8.60;99.90;;;;;;5108443;28;19928;-76
2023/04/14 07:40:36;;;;;;;;;;;8.70;99.90;;;;;;5107728;28;19969;-76
2023/04/14 07:43:01;;;;;;;;;;;8.80;99.90;;;;;;5095473;28;19927;-76
2023/04/14 07:45:27;;;;;;;;;;;8.90;99.90;;;;;;5108442;28;19923;-76
2023/04/14 07:47:52;;;;;;;;;;;9.00;99.90;;;;;;5106630;28;20014;-78
2023/04/14 07:50:18;;;;;;;;;;;9.10;99.90;;;;;;5107983;28;20373;-78
2023/04/14 07:52:43;;;;;;;;;;;9.10;99.90;;;;;;5099502;28;19924;-77
2023/04/14 07:55:09;;;;;;;;;;;9.10;99.90;;;;;;5088467;28;20417;-77
2023/04/14 07:57:35;;;;;;;;;;;9.20;99.90;;;;;;5071750;28;19989;-77
2023/04/14 08:00:01;;;;;;;;;;;9.30;99.90;;;;;;5090522;28;19972;-78
2023/04/14 08:02:26;;;;;;;;;;;9.30;99.90;;;;;;5090076;28;19924;-77
2023/04/14 08:04:52;;;;;;;;;;;9.40;99.90;;;;;;5088501;28;19977;-77
2023/04/14 08:07:18;;;;;;;;;;;9.50;99.90;;;;;;5090462;28;20283;-77
2023/04/14 08:09:44;;;;;;;;;;;9.60;99.90;;;;;;5089692;28;19931;-77
2023/04/14 08:12:10;;;;;;;;;;;9.70;99.90;;;;;;5107467;28;20049;-76
2023/04/14 08:14:35;;;;;;;;;;;9.70;99.90;;;;;;5109155;28;19923;-76
2023/04/14 08:17:01;;;;;;;;;;;9.80;99.90;;;;;;5108630;28;19923;-76
2023/04/14 08:19:26;;;;;;;;;;;9.80;99.90;;;;;;5107946;28;19923;-76
2023/04/14 08:21:52;;;;;;;;;;;9.90;99.90;;;;;;5094516;28;19928;-76
2023/04/14 08:24:18;;;;;;;;;;;10.00;99.90;;;;;;5097263;28;20390;-75
2023/04/14 08:26:43;;;;;;;;;;;10.10;99.90;;;;;;5104942;28;19924;-76
2023/04/14 08:29:09;;;;;;;;;;;10.10;99.90;;;;;;5106669;28;19931;-76
2023/04/14 08:31:34;;;;;;;;;;;10.20;99.90;;;;;;5105384;28;19924;-76
2023/04/14 08:34:00;;;;;;;;;;;10.30;99.90;;;;;;5095771;28;20409;-78
2023/04/14 08:36:26;;;;;;;;;;;10.40;99.90;;;;;;5085405;28;19924;-77
2023/04/14 08:38:52;;;;;;;;;;;10.40;99.90;;;;;;5088074;28;19969;-76
2023/04/14 08:41:18;;;;;;;;;;;10.50;99.90;;;;;;5103021;28;19955;-76
2023/04/14 08:43:44;;;;;;;;;;;10.70;99.90;;;;;;5106363;28;19923;-75
2023/04/14 08:46:10;;;;;;;;;;;10.80;99.90;;;;;;5102331;28;19931;-76
2023/04/14 08:48:37;;;;;;;;;;;10.90;99.90;;;;;;5104732;28;19982;-76
2023/04/14 08:51:06;;;;;;;;;;;11.00;99.90;;;;;;5101058;28;19940;-75
2023/04/14 08:53:32;;;;;;;;;;;11.10;99.90;;;;;;5105424;28;20335;-76
2023/04/14 08:56:02;;;;;;;;;;;11.10;99.90;;;;;;5097040;28;19924;-76
2023/04/14 08:58:27;;;;;;;;;;;11.20;99.90;;;;;;5091036;28;19924;-76
2023/04/14 09:00:53;;;;;;;;;;;11.30;99.90;;;;;;5089316;28;20033;-76
2023/04/14 09:03:19;;;;;;;;;;;11.30;99.90;;;;;;5089476;28;19928;-76
2023/04/14 09:05:45;;;;;;;;;;;11.30;99.90;;;;;;5089414;28;19931;-76
2023/04/14 09:08:11;;;;;;;;;;;11.40;99.90;;;;;;5099860;28;19924;-76
2023/04/14 09:10:37;;;;;;;;;;;11.50;99.90;;;;;;5107099;28;19924;-76
2023/04/14 09:13:03;;;;;;;;;;;11.60;99.90;;;;;;5107453;28;19944;-76
2023/04/14 09:15:29;;;;;;;;;;;11.70;99.90;;;;;;5107580;28;20302;-76
2023/04/14 09:17:55;;;;;;;;;;;11.70;99.90;;;;;;5098779;28;19928;-76
2023/04/14 09:20:21;;;;;;;;;;;11.80;99.90;;;;;;5111573;28;20451;-76
2023/04/14 09:22:46;;;;;;;;;;;12.00;99.90;;;;;;5096922;28;19924;-77
2023/04/14 09:25:12;;;;;;;;;;;12.50;99.90;;;;;;5098959;28;20003;-77
2023/04/14 09:27:37;;;;;;;;;;;13.30;99.90;;;;;;5109857;28;20015;-77
2023/04/14 09:30:04;;;;;;;;;;;13.90;99.90;;;;;;5111759;28;19935;-76
2023/04/14 09:32:29;;;;;;;;;;;14.50;99.90;;;;;;5111413;27;19963;-76
2023/04/14 09:34:56;;;;;;;;;;;15.00;99.90;;;;;;5103540;28;19959;-77
2023/04/14 09:37:21;;;;;;;;;;;15.40;99.90;;;;;;5103677;28;20309;-77
2023/04/14 09:39:48;;;;;;;;;;;15.70;99.90;;;;;;5097467;28;19927;-77
2023/04/14 09:42:16;;;;;;;;;;;15.90;99.90;;;;;;5110497;28;19924;-76
2023/04/14 09:44:54;;;;;;;;;;;16.20;99.90;;;;;;5108913;28;19924;-77
2023/04/14 09:47:21;;;;;;;;;;;16.40;99.90;;;;;;5107305;28;19935;-77
2023/04/14 09:50:01;;;;;;;;;;;16.60;99.10;;;;;;5110080;28;19923;-77
2023/04/14 09:52:47;;;;;;;;;;;16.80;99.30;;;;;;5102942;28;20321;-77
2023/04/14 09:55:13;;;;;;;;;;;17.10;97.80;;;;;;5102760;28;19931;-77
2023/04/14 09:57:43;;;;;;;;;;;17.40;96.90;;;;;;5091612;28;19924;-77
2023/04/14 10:00:14;;;;;;;6.53;1.55;;;17.50;97.10;;;;;;5091679;28;19924;-77
2023/04/14 10:02:54;;;;;;;4.65;1.50;;;17.80;99.00;;;;;;5090488;28;20433;-77
2023/04/14 10:05:21;;;;;;;6.65;1.73;;;18.00;99.30;;;;;;5090170;28;21395;-77
2023/04/14 10:07:48;;;;;;;12.57;2.63;;;18.20;97.70;;;;;;5088778;28;20426;-77
2023/04/14 10:10:13;;;;;;;6.00;2.00;;;18.10;99.90;;;;;;5104317;28;20412;-77
2023/04/14 10:12:43;;;;;;;8.03;1.93;;;18.30;99.90;;;;;;5109212;28;20404;-77
2023/04/14 10:15:10;;;;;;;9.32;2.35;;;18.40;99.90;;;;;;5090226;28;20947;-77
2023/04/14 10:17:36;;;;;;;49.27;8.00;;;18.60;99.90;;;;;;5109535;28;20409;-77
2023/04/14 10:20:04;;;;;;;20.50;3.60;;;18.90;99.90;;;;;;5089083;28;20413;-77
2023/04/14 10:22:31;;;;;;;70.53;9.55;;;19.00;98.20;;;;;;5090528;28;20410;-77
2023/04/14 10:24:58;;;;;;;4.93;1.50;;;19.00;97.30;;;;;;5106040;28;20400;-76
2023/04/14 10:27:25;;;;;;;5.70;1.48;;;18.90;95.90;;;;;;5096178;28;20973;-77
2023/04/14 10:29:51;;;;;;;7.43;2.00;;;19.00;93.30;;;;;;5092226;28;20408;-77
2023/04/14 10:32:19;;;;;;;6.25;1.98;;;19.00;95.90;;;;;;5106469;28;20404;-77
2023/04/14 10:35:08;;;;;;;6.50;1.90;;;18.80;94.70;;;;;;5106139;28;20454;-77
2023/04/14 10:37:34;;;;;;;9.88;1.90;;;18.70;96.10;;;;;;5106343;28;20782;-77
2023/04/14 10:40:06;;;;;;;7.95;1.85;;;19.00;97.30;;;;;;5106754;28;20396;-77
2023/04/14 10:42:50;;;;;;;7.18;2.22;;;19.20;94.70;;;;;;5103891;28;20778;-77
2023/04/14 10:45:15;;;;;;;6.57;2.10;;;19.40;90.60;;;;;;5089940;28;20901;-77
2023/04/14 10:47:44;;;;;;;7.50;2.22;;;19.30;89.90;;;;;;5091969;28;20486;-77
2023/04/14 10:50:14;;;;;;;7.00;2.30;;;19.30;90.00;;;;;;5104560;28;20436;-77
2023/04/14 10:52:53;;;;;;;9.68;2.45;;;19.30;86.20;;;;;;5101453;28;20405;-77
2023/04/14 10:55:21;;;;;;;5.78;2.00;;;19.30;89.60;;;;;;5103181;28;20042;-77
2023/04/14 10:57:47;;;;;;;;;;;19.30;87.10;;;;;;5073377;28;20040;-77
2023/04/14 11:00:19;;;;;;;;;;;19.40;87.10;;;;;;5090328;28;19920;-77
2023/04/14 11:03:01;;;;;;;6.95;2.47;;;19.40;90.40;;;;;;5090670;28;19920;-78
2023/04/14 11:05:27;;;;;;;6.35;2.42;;;19.50;83.40;;;;;;5089354;28;20497;-78
2023/04/14 11:07:55;;;;;;;7.80;2.72;;;19.70;90.30;;;;;;5088962;28;20517;-79
2023/04/14 11:10:21;;;;;;;8.35;2.72;;;19.80;90.70;;;;;;5088848;28;20931;-79
2023/04/14 11:12:48;;;;;;;8.45;2.33;;;20.00;89.30;;;;;;5090068;28;20124;-79
2023/04/14 11:15:15;;;;;;;7.40;2.80;;;20.00;87.80;;;;;;5089909;28;20111;-79
2023/04/14 11:17:41;;;;;;;;;;;20.10;82.40;;;;;;5090804;28;20044;-79
2023/04/14 11:20:13;;;;;;;;;;;20.20;81.00;;;;;;5072173;28;19920;-79
2023/04/14 11:22:40;;;;;;;;;;;20.40;83.00;;;;;;5090882;28;19920;-79
2023/04/14 11:25:07;;;;;;;8.23;1.98;;;20.50;80.60;;;;;;5095097;28;20346;-79
2023/04/14 11:27:34;;;;;;;9.27;2.55;;;20.50;80.70;;;;;;5108175;28;20424;-79
2023/04/14 11:30:00;;;;;;;7.40;2.17;;;20.70;79.40;;;;;;5106345;28;20445;-79
2023/04/14 11:32:26;;;;;;;;;;;20.70;77.70;;;;;;5108409;28;20561;-79
2023/04/14 11:34:51;;;;;;;;;;;20.20;74.70;;;;;;5107673;28;19919;-78
2023/04/14 11:37:17;;;;;;;;;;;19.50;71.70;;;;;;5079667;28;19954;-78
2023/04/14 11:39:43;;;;;;;;;;;19.20;76.90;;;;;;5099898;28;19920;-78
2023/04/14 11:42:08;;;;;;;8.03;1.93;;;19.60;79.80;;;;;;5079476;28;20613;-79
2023/04/14 11:44:34;;;;;;;;;;;20.10;76.70;;;;;;5101351;28;20053;-78
2023/04/14 11:47:00;;;;;;;;;;;19.70;72.60;;;;;;5090128;28;20531;-78
2023/04/14 11:49:33;;;;;;;;;;;19.10;75.90;;;;;;5094123;28;19920;-78
2023/04/14 11:52:05;;;;;;;;;;;18.80;76.40;;;;;;5107893;28;19966;-78
2023/04/14 11:54:35;;;;;;;;;;;18.70;75.80;;;;;;5095623;28;19928;-78
2023/04/14 11:57:01;;;;;;;;;;;18.40;77.70;;;;;;5093937;28;19920;-78
2023/04/14 11:59:27;;;;;;;;;;;18.10;77.30;;;;;;5091144;28;19920;-79
2023/04/14 12:01:52;;;;;;;;;;;17.90;79.60;;;;;;5090663;28;19963;-79
2023/04/14 12:04:18;;;;;;;;;;;17.60;80.40;;;;;;5090772;28;19946;-78
2023/04/14 12:06:44;;;;;;;;;;;17.50;78.80;;;;;;5088561;28;19920;-78
2023/04/14 12:09:09;;;;;;;;;;;17.70;80.80;;;;;;5089934;28;19924;-78
2023/04/14 12:11:35;;;;;;;;;;;18.00;79.10;;;;;;5087820;28;19920;-79
2023/04/14 12:14:00;;;;;;;;;;;18.30;79.10;;;;;;5090843;28;20010;-79
2023/04/14 12:16:26;;;;;;;;;;;18.50;76.70;;;;;;5090389;28;20296;-79
2023/04/14 12:18:52;;;;;;;;;;;18.40;76.90;;;;;;5091241;28;19920;-79
2023/04/14 12:21:18;;;;;;;;;;;18.30;77.80;;;;;;5090364;28;19920;-79
2023/04/14 12:23:44;;;;;;;;;;;18.00;75.80;;;;;;5090232;28;19947;-78
2023/04/14 12:26:10;;;;;;;;;;;18.00;77.00;;;;;;5090389;28;19995;-78
2023/04/14 12:28:38;;;;;;;;;;;17.90;75.30;;;;;;5091015;28;19920;-78
2023/04/14 12:31:03;;;;;;;;;;;17.90;76.50;;;;;;5089943;28;19979;-79
2023/04/14 12:33:30;;;;;;;;;;;18.10;78.20;;;;;;5089582;28;19952;-79
2023/04/14 12:36:03;;;;;;;;;;;18.50;78.20;;;;;;5089291;28;20485;-79
2023/04/14 12:38:29;;;;;;;;;;;18.90;79.60;;;;;;5089769;28;19920;-79
2023/04/14 12:40:55;;;;;;;;;;;19.60;75.70;;;;;;5089578;28;19927;-78
2023/04/14 12:43:34;;;;;;;;;;;19.60;74.40;;;;;;5089440;28;19920;-79
2023/04/14 12:46:02;;;;;;;8.20;1.90;;;19.60;75.10;;;;;;5092319;28;19926;-79
2023/04/14 12:48:37;;;;;;;;;;;20.00;71.30;;;;;;5107216;28;20704;-79
2023/04/14 12:51:07;;;;;;;;;;;20.30;73.00;;;;;;5108229;28;20014;-79
2023/04/14 12:53:33;;;;;;;;;;;20.20;73.20;;;;;;5111870;28;19967;-79
2023/04/14 12:56:08;;;;;;;;;;;19.90;73.50;;;;;;5105381;28;19927;-79
2023/04/14 12:58:37;;;;;;;7.85;1.90;;;19.90;74.00;;;;;;5093886;28;19919;-79
2023/04/14 13:01:15;;;;;;;5.88;2.20;;;20.30;73.30;;;;;;5093006;28;20071;-79
2023/04/14 13:03:43;;;;;;;;;;;20.90;72.40;;;;;;5093790;28;20095;-79
2023/04/14 13:06:09;;;;;;;;;;;21.40;70.50;;;;;;5093286;28;19920;-79
2023/04/14 13:08:35;;;;;;;;;;;21.70;68.80;;;;;;5108055;28;20032;-79
2023/04/14 13:11:00;;;;;;;;;;;21.80;67.70;;;;;;5111753;28;20390;-78
2023/04/14 13:13:26;;;;;;;5.53;1.98;;;21.90;66.90;;;;;;5110591;28;19931;-79
2023/04/14 13:15:52;;;;;;;;;;;21.80;66.60;;;;;;5112369;28;20039;-78
2023/04/14 13:18:17;;;;;;;;;;;21.70;66.10;;;;;;5108990;28;20011;-79
2023/04/14 13:20:50;;;;;;;;;;;21.70;65.90;;;;;;5111565;28;19928;-79
2023/04/14 13:23:16;;;;;;;;;;;22.00;65.70;;;;;;5106729;28;19923;-76
2023/04/14 13:25:41;;;;;;;5.80;1.90;;;22.50;64.10;;;;;;5110745;28;19965;-76
2023/04/14 13:28:07;;;;;;;4.45;1.40;;;23.00;64.90;;;;;;5107780;28;20131;-77
2023/04/14 13:30:32;;;;;;;;;;;23.30;59.80;;;;;;5110366;28;20054;-77
2023/04/14 13:32:58;;;;;;;;;;;23.80;60.00;;;;;;5107615;28;19928;-77
2023/04/14 13:35:24;;;;;;;;;;;24.00;60.80;;;;;;5088078;28;19920;-75
2023/04/14 13:37:49;;;;;;;;;;;24.00;56.80;;;;;;5102996;28;19943;-76
2023/04/14 13:40:15;;;;;;;;;;;23.90;58.60;;;;;;5093565;28;20416;-75
2023/04/14 13:42:40;;;;;;;;;;;23.90;59.50;;;;;;5099643;28;19972;-75
2023/04/14 13:45:06;;;;;;;;;;;24.30;56.80;;;;;;5106949;28;19920;-77
2023/04/14 13:47:32;;;;;;;6.93;2.30;;;24.40;60.10;;;;;;5100629;27;19927;-77
2023/04/14 13:49:57;;;;;;;7.07;2.40;;;24.60;58.80;;;;;;5096295;28;20428;-77
2023/04/14 13:52:23;;;;;;;10.10;2.90;;;23.90;57.10;;;;;;5088084;28;20428;-77
2023/04/14 13:54:49;;;;;;;6.53;2.40;;;22.70;57.90;;;;;;5092586;28;20466;-77
2023/04/14 13:57:14;;;;;;;8.80;2.50;;;21.60;60.30;;;;;;5088757;28;20417;-77
2023/04/14 13:59:40;;;;;;;8.07;2.60;;;20.80;59.60;;;;;;5088654;28;20510;-77
2023/04/14 14:02:06;;;;;;;7.27;2.33;;;20.50;59.90;;;;;;5087516;28;20429;-77
2023/04/14 14:04:35;;;;;;;7.30;2.37;;;20.40;62.50;;;;;;5093588;27;20984;-77
2023/04/14 14:07:01;;;;;;;8.93;2.10;;;20.30;61.70;;;;;;5086753;28;20414;-77
2023/04/14 14:09:27;;;;;;;6.63;2.10;;;20.70;62.10;;;;;;5088317;28;20768;-77